createdAt,value
2023-05-01T00:01:26.870Z,64.44
2023-05-01T00:03:54.695Z,64.88
2023-05-01T00:06:21.195Z,65.07
2023-05-01T00:08:47.808Z,65.04
2023-05-01T00:11:14.571Z,64.56
2023-05-01T00:13:41.205Z,64.49
2023-05-01T00:16:12.540Z,64.89
2023-05-01T00:18:39.355Z,64.95
2023-05-01T00:21:05.910Z,65.24
2023-05-01T00:23:32.288Z,65.15
2023-05-01T00:25:58.730Z,64.83
2023-05-01T00:28:25.229Z,65.28
2023-05-01T00:30:51.872Z,65.43
2023-05-01T00:33:18.182Z,64.97
2023-05-01T00:35:45.334Z,64.72
2023-05-01T00:38:12.044Z,64.09
2023-05-01T00:40:45.194Z,64.32
2023-05-01T00:43:12.740Z,63.18
2023-05-01T00:45:40.473Z,62.64
2023-05-01T00:48:07.166Z,62.58
2023-05-01T00:50:33.652Z,62.54
2023-05-01T00:53:00.318Z,62.55
2023-05-01T00:55:26.952Z,61.97
2023-05-01T00:57:55.149Z,61.86
2023-05-01T01:00:24.430Z,62.09
2023-05-01T01:02:51.268Z,62.72
2023-05-01T01:05:18.827Z,62.38
2023-05-01T01:07:55.826Z,62.75
2023-05-01T01:10:22.125Z,62.39
2023-05-01T01:13:21.511Z,63.19
2023-05-01T01:16:04.131Z,63.91
2023-05-01T01:18:40.217Z,63.91
2023-05-01T01:21:38.113Z,64.39
2023-05-01T01:24:46.336Z,64.56
2023-05-01T01:27:39.764Z,64.82
2023-05-01T01:30:31.861Z,65.28
2023-05-01T01:33:36.158Z,65.03
2023-05-01T01:36:09.121Z,64.88
2023-05-01T01:38:42.534Z,65.10
2023-05-01T01:41:13.535Z,65.19
2023-05-01T01:43:45.755Z,65.71
2023-05-01T01:46:12.854Z,66.98
2023-05-01T01:48:43.375Z,67.19
2023-05-01T01:51:14.631Z,67.50
2023-05-01T01:53:43.394Z,67.76
2023-05-01T01:56:10.731Z,68.46
2023-05-01T01:58:39.861Z,68.96
2023-05-01T02:01:07.560Z,69.55
2023-05-01T02:03:34.955Z,69.86
2023-05-01T02:06:02.532Z,69.91
2023-05-01T02:08:31.674Z,69.93
2023-05-01T02:11:02.050Z,69.71
2023-05-01T02:13:29.981Z,70.11
2023-05-01T02:15:58.811Z,69.70
2023-05-01T02:18:29.335Z,70.23
2023-05-01T02:20:57.994Z,70.77
2023-05-01T02:23:26.145Z,71.34
2023-05-01T02:25:53.666Z,71.93
2023-05-01T02:28:26.784Z,71.67
2023-05-01T02:30:53.342Z,71.29
2023-05-01T02:33:19.760Z,71.66
2023-05-01T02:35:47.436Z,71.95
2023-05-01T02:38:16.184Z,72.59
2023-05-01T02:40:52.057Z,73.25
2023-05-01T02:43:21.261Z,73.95
2023-05-01T02:45:49.274Z,73.93
2023-05-01T02:48:20.344Z,74.11
2023-05-01T02:50:48.613Z,73.67
2023-05-01T02:53:16.265Z,73.46
2023-05-01T02:55:43.302Z,73.56
2023-05-01T02:58:15.334Z,73.44
2023-05-01T03:00:42.190Z,74.00
2023-05-01T03:03:08.742Z,74.14
2023-05-01T03:05:35.181Z,74.52
2023-05-01T03:08:01.623Z,74.74
2023-05-01T03:10:28.096Z,74.89
2023-05-01T03:12:54.412Z,75.51
2023-05-01T03:15:20.795Z,75.52
2023-05-01T03:17:47.403Z,75.54
2023-05-01T03:20:13.822Z,75.85
2023-05-01T03:22:40.179Z,75.88
2023-05-01T03:25:06.999Z,76.16
2023-05-01T03:27:33.389Z,76.34
2023-05-01T03:29:59.697Z,76.53
2023-05-01T03:32:26.235Z,76.80
2023-05-01T03:34:52.680Z,76.80
2023-05-01T03:37:19.084Z,76.97
2023-05-01T03:39:47.212Z,77.13
2023-05-01T03:42:13.564Z,77.53
2023-05-01T03:44:39.940Z,77.75
2023-05-01T03:47:06.497Z,77.79
2023-05-01T03:49:32.858Z,78.15
2023-05-01T03:51:59.183Z,78.56
2023-05-01T03:54:25.929Z,78.47
2023-05-01T03:56:52.579Z,78.44
2023-05-01T03:59:18.964Z,78.56
2023-05-01T04:01:45.882Z,78.72
2023-05-01T04:04:12.347Z,78.78
2023-05-01T04:06:38.905Z,79.23
2023-05-01T04:09:05.429Z,79.09
2023-05-01T04:11:31.804Z,79.15
2023-05-01T04:13:58.153Z,78.61
2023-05-01T04:16:24.915Z,78.94
2023-05-01T04:18:52.756Z,79.12
2023-05-01T04:21:19.313Z,79.38
2023-05-01T04:23:45.814Z,79.69
2023-05-01T04:26:12.195Z,80.12
2023-05-01T04:28:38.697Z,80.39
2023-05-01T04:31:05.245Z,80.78
2023-05-01T04:33:31.678Z,80.62
2023-05-01T04:35:58.504Z,80.97
2023-05-01T04:38:24.907Z,81.11
2023-05-01T04:40:52.334Z,81.16
2023-05-01T04:43:18.650Z,81.28
2023-05-01T04:45:45.157Z,81.42
2023-05-01T04:48:11.641Z,81.88
2023-05-01T04:50:38.159Z,81.85
2023-05-01T04:53:04.535Z,82.56
2023-05-01T04:55:31.366Z,82.67
2023-05-01T04:57:57.789Z,82.72
2023-05-01T05:00:24.171Z,83.20
2023-05-01T05:02:50.670Z,83.33
2023-05-01T05:05:17.125Z,83.17
2023-05-01T05:07:43.479Z,83.04
2023-05-01T05:10:10.335Z,83.01
2023-05-01T05:12:36.788Z,82.88
2023-05-01T05:15:03.270Z,82.59
2023-05-01T05:17:29.742Z,82.82
2023-05-01T05:19:56.280Z,82.65
2023-05-01T05:22:23.614Z,82.63
2023-05-01T05:24:55.708Z,82.53
2023-05-01T05:27:22.006Z,82.86
2023-05-01T05:29:48.344Z,82.67
2023-05-01T05:32:14.840Z,82.36
2023-05-01T05:34:41.179Z,82.25
2023-05-01T05:37:08.364Z,82.19
2023-05-01T05:39:35.115Z,81.91
2023-05-01T05:42:01.444Z,81.62
2023-05-01T05:44:27.819Z,81.35
2023-05-01T05:46:54.234Z,80.94
2023-05-01T05:49:20.621Z,80.89
2023-05-01T05:51:46.997Z,79.48
2023-05-01T05:54:13.445Z,78.94
2023-05-01T05:56:39.828Z,78.08
2023-05-01T05:59:06.464Z,77.38
2023-05-01T06:01:33.020Z,76.91
2023-05-01T06:03:59.324Z,76.23
2023-05-01T06:06:26.338Z,75.49
2023-05-01T06:08:52.737Z,75.00
2023-05-01T06:11:21.465Z,74.88
2023-05-01T06:13:47.815Z,74.78
2023-05-01T06:16:15.209Z,74.23
2023-05-01T06:18:42.402Z,73.80
2023-05-01T06:21:10.312Z,72.70
2023-05-01T06:23:37.123Z,72.57
2023-05-01T06:29:44.299Z,71.48
2023-05-01T06:32:10.795Z,70.69
2023-05-01T06:34:37.122Z,70.21
2023-05-01T06:37:06.343Z,70.02
2023-05-01T06:39:32.814Z,70.03
2023-05-01T06:41:59.299Z,69.51
2023-05-01T06:44:25.752Z,69.55
2023-05-01T06:46:52.261Z,68.96
2023-05-01T06:49:18.788Z,68.45
2023-05-01T06:51:45.316Z,68.14
2023-05-01T06:54:11.616Z,67.68
2023-05-01T06:56:38.066Z,67.56
2023-05-01T06:59:04.525Z,66.84
2023-05-01T07:01:32.701Z,67.01
2023-05-01T07:04:00.354Z,66.55
2023-05-01T07:06:27.550Z,66.51
2023-05-01T07:08:54.030Z,66.18
2023-05-01T07:11:20.422Z,65.19
2023-05-01T07:13:46.766Z,64.71
2023-05-01T07:16:13.314Z,64.11
2023-05-01T07:18:39.760Z,64.38
2023-05-01T07:21:06.274Z,63.74
2023-05-01T07:23:32.733Z,63.41
2023-05-01T07:25:59.068Z,63.39
2023-05-01T07:28:25.518Z,63.42
2023-05-01T07:30:52.006Z,63.40
2023-05-01T07:33:18.691Z,63.22
2023-05-01T07:35:45.250Z,62.65
2023-05-01T07:38:12.053Z,62.28
2023-05-01T07:40:38.602Z,62.13
2023-05-01T07:43:05.218Z,61.26
2023-05-01T07:45:32.031Z,61.43
2023-05-01T07:47:58.482Z,61.13
2023-05-01T07:50:26.033Z,60.91
2023-05-01T07:52:52.747Z,59.88
2023-05-01T07:55:19.167Z,59.89
2023-05-01T07:57:45.639Z,60.04
2023-05-01T08:00:12.617Z,60.28
2023-05-01T08:02:39.195Z,59.92
2023-05-01T08:05:06.033Z,60.34
2023-05-01T08:07:32.532Z,60.36
2023-05-01T08:10:00.602Z,59.68
2023-05-01T08:12:28.842Z,59.90
2023-05-01T08:14:55.251Z,59.21
2023-05-01T08:17:21.725Z,59.24
2023-05-01T08:19:48.235Z,58.95
2023-05-01T08:22:14.601Z,58.96
2023-05-01T08:24:42.682Z,59.50
2023-05-01T08:27:09.555Z,59.29
2023-05-01T08:29:35.949Z,58.92
2023-05-01T08:32:02.437Z,58.75
2023-05-01T08:34:29.096Z,58.11
2023-05-01T08:36:55.506Z,58.02
2023-05-01T08:39:21.938Z,58.47
2023-05-01T08:41:48.754Z,58.23
2023-05-01T08:44:16.696Z,58.50
2023-05-01T08:46:55.747Z,58.31
2023-05-01T08:49:23.899Z,58.21
2023-05-01T08:51:52.871Z,58.29
2023-05-01T08:54:20.713Z,57.87
2023-05-01T08:56:47.782Z,57.93
2023-05-01T08:59:15.016Z,57.25
2023-05-01T09:01:42.823Z,57.63
2023-05-01T09:04:10.732Z,57.58
2023-05-01T09:06:37.752Z,57.85
2023-05-01T09:09:04.426Z,57.53
2023-05-01T09:11:30.824Z,57.43
2023-05-01T09:13:57.349Z,56.43
2023-05-01T09:16:23.910Z,56.72
2023-05-01T09:18:50.562Z,56.58
2023-05-01T09:21:17.323Z,56.62
2023-05-01T09:23:43.733Z,56.70
2023-05-01T09:26:10.388Z,56.60
2023-05-01T09:28:58.138Z,56.37
2023-05-01T09:31:29.451Z,56.20
2023-05-01T09:34:00.946Z,55.42
2023-05-01T09:36:30.992Z,54.55
2023-05-01T09:38:58.057Z,54.68
2023-05-01T09:41:24.539Z,54.93
2023-05-01T09:43:52.927Z,54.50
2023-05-01T09:46:20.058Z,54.09
2023-05-01T09:48:58.890Z,53.30
2023-05-01T09:51:33.316Z,53.21
2023-05-01T09:54:02.135Z,53.40
2023-05-01T09:56:33.835Z,53.01
2023-05-01T09:59:18.893Z,52.60
2023-05-01T10:01:48.259Z,51.65
2023-05-01T10:04:14.659Z,51.90
2023-05-01T10:06:41.397Z,52.16
2023-05-01T10:09:16.588Z,52.24
2023-05-01T10:11:57.550Z,52.14
2023-05-01T10:14:25.560Z,51.86
2023-05-01T10:16:53.206Z,51.95
2023-05-01T10:19:21.270Z,52.35
2023-05-01T10:21:47.697Z,52.17
2023-05-01T10:24:16.170Z,52.47
2023-05-01T10:26:46.327Z,52.78
2023-05-01T10:29:12.999Z,52.48
2023-05-01T10:31:41.532Z,52.56
2023-05-01T10:34:09.196Z,52.69
2023-05-01T10:36:44.809Z,51.92
2023-05-01T10:39:31.267Z,51.46
2023-05-01T10:41:57.638Z,51.22
2023-05-01T10:44:26.242Z,51.73
2023-05-01T10:46:53.238Z,51.50
2023-05-01T10:49:19.802Z,50.68
2023-05-01T10:51:58.349Z,51.25
2023-05-01T10:54:29.697Z,50.85
2023-05-01T10:56:58.574Z,50.23
2023-05-01T10:59:25.610Z,49.45
2023-05-01T11:01:53.104Z,49.20
2023-05-01T11:04:19.527Z,48.83
2023-05-01T11:07:17.662Z,47.62
2023-05-01T11:09:57.380Z,48.83
2023-05-01T11:12:46.064Z,48.05
2023-05-01T11:15:13.505Z,47.61
2023-05-01T11:17:39.981Z,46.62
2023-05-01T11:20:07.724Z,46.54
2023-05-01T11:22:35.126Z,45.75
2023-05-01T11:25:04.660Z,45.09
2023-05-01T11:27:31.514Z,45.35
2023-05-01T11:30:00.979Z,44.81
2023-05-01T11:32:29.961Z,45.57
2023-05-01T11:34:57.019Z,45.08
2023-05-01T11:37:44.212Z,45.10
2023-05-01T11:40:26.334Z,44.70
2023-05-01T11:43:06.892Z,44.32
2023-05-01T11:45:35.052Z,44.58
2023-05-01T11:48:04.416Z,43.89
2023-05-01T11:50:36.097Z,44.00
2023-05-01T11:53:15.411Z,41.97
2023-05-01T11:55:42.131Z,42.64
2023-05-01T11:58:08.797Z,42.86
2023-05-01T12:00:38.037Z,43.21
2023-05-01T12:03:07.091Z,43.32
2023-05-01T12:05:36.848Z,43.83
2023-05-01T12:08:23.787Z,43.28
2023-05-01T12:10:56.135Z,41.43
2023-05-01T12:13:23.583Z,40.98
2023-05-01T12:15:52.819Z,39.79
2023-05-01T12:18:21.407Z,40.56
2023-05-01T12:20:51.751Z,40.16
2023-05-01T12:23:21.759Z,40.14
2023-05-01T12:25:48.244Z,40.41
2023-05-01T12:28:20.355Z,40.45
2023-05-01T12:30:49.023Z,39.78
2023-05-01T12:33:20.152Z,40.10
2023-05-01T12:35:50.503Z,40.03
2023-05-01T12:38:21.480Z,38.68
2023-05-01T12:40:54.601Z,39.39
2023-05-01T12:43:32.626Z,39.61
2023-05-01T12:45:59.587Z,40.59
2023-05-01T12:48:26.699Z,41.72
2023-05-01T12:50:56.875Z,41.93
2023-05-01T12:53:25.167Z,41.87
2023-05-01T12:55:54.070Z,40.79
2023-05-01T12:58:20.849Z,40.81
2023-05-01T13:00:52.166Z,40.46
2023-05-01T13:03:26.872Z,40.98
2023-05-01T13:06:03.870Z,40.07
2023-05-01T13:08:32.582Z,39.63
2023-05-01T13:11:01.057Z,39.21
2023-05-01T13:13:34.548Z,39.04
2023-05-01T13:16:12.730Z,38.65
2023-05-01T13:18:58.008Z,38.44
2023-05-01T13:21:24.889Z,38.22
2023-05-01T13:23:59.883Z,38.34
2023-05-01T13:26:35.564Z,38.74
2023-05-01T13:29:03.871Z,38.88
2023-05-01T13:31:30.477Z,38.62
2023-05-01T13:33:58.837Z,38.87
2023-05-01T13:36:27.639Z,38.84
2023-05-01T13:38:55.963Z,38.16
2023-05-01T13:41:25.651Z,37.50
2023-05-01T13:43:53.976Z,36.86
2023-05-01T13:46:23.072Z,36.04
2023-05-01T13:48:50.045Z,36.49
2023-05-01T13:51:24.876Z,36.85
2023-05-01T13:53:53.714Z,36.80
2023-05-01T13:56:21.428Z,36.50
2023-05-01T13:58:47.821Z,36.55
2023-05-01T14:01:20.133Z,37.04
2023-05-01T14:03:47.575Z,37.19
2023-05-01T14:06:19.303Z,37.27
2023-05-01T14:08:47.785Z,37.62
2023-05-01T14:11:14.536Z,37.75
2023-05-01T14:13:42.818Z,38.32
2023-05-01T14:16:11.675Z,38.87
2023-05-01T14:18:47.404Z,39.59
2023-05-01T14:21:18.500Z,38.65
2023-05-01T14:23:45.388Z,40.28
2023-05-01T14:26:17.895Z,42.22
2023-05-01T14:28:46.267Z,43.40
2023-05-01T14:31:23.504Z,45.22
2023-05-01T14:33:55.019Z,45.92
2023-05-01T14:36:21.444Z,46.86
2023-05-01T14:38:49.293Z,47.58
2023-05-01T14:41:17.817Z,47.77
2023-05-01T14:43:44.328Z,47.94
2023-05-01T14:46:33.261Z,47.75
2023-05-01T14:49:01.342Z,48.29
2023-05-01T14:51:28.594Z,49.66
2023-05-01T14:53:55.528Z,51.78
2023-05-01T14:56:22.874Z,53.74
2023-05-01T14:58:49.926Z,56.90
2023-05-01T15:01:16.914Z,58.64
2023-05-01T15:03:43.807Z,60.79
2023-05-01T15:06:10.571Z,62.37
2023-05-01T15:08:38.255Z,63.81
2023-05-01T15:11:04.942Z,66.34
2023-05-01T15:13:34.315Z,67.93
2023-05-01T15:16:01.005Z,70.54
2023-05-01T15:18:27.464Z,72.20
2023-05-01T15:20:53.859Z,73.26
2023-05-01T15:23:20.685Z,73.59
2023-05-01T15:25:47.998Z,74.91
2023-05-01T15:28:14.616Z,76.33
2023-05-01T15:30:44.762Z,77.15
2023-05-01T15:33:11.399Z,78.39
2023-05-01T15:35:38.027Z,79.77
2023-05-01T15:38:04.671Z,79.97
2023-05-01T15:40:31.872Z,80.52
2023-05-01T15:42:58.507Z,79.94
2023-05-01T15:45:25.008Z,80.54
2023-05-01T15:47:51.437Z,81.24
2023-05-01T15:50:17.849Z,81.33
2023-05-01T15:52:44.384Z,83.69
2023-05-01T15:55:11.782Z,84.00
2023-05-01T15:57:38.188Z,85.42
2023-05-01T16:00:05.119Z,86.34
2023-05-01T16:02:32.646Z,86.74
2023-05-01T16:05:00.126Z,86.20
2023-05-01T16:07:29.209Z,85.28
2023-05-01T16:09:56.532Z,84.99
2023-05-01T16:12:23.090Z,84.94
2023-05-01T16:14:49.599Z,85.00
2023-05-01T16:17:18.344Z,84.68
2023-05-01T16:19:44.847Z,85.39
2023-05-01T16:22:11.642Z,86.76
2023-05-01T16:24:38.461Z,88.04
2023-05-01T16:27:04.825Z,87.98
2023-05-01T16:29:35.338Z,87.95
2023-05-01T16:32:04.545Z,88.26
2023-05-01T16:34:31.618Z,88.26
2023-05-01T16:36:58.215Z,87.42
2023-05-01T16:39:24.668Z,87.37
2023-05-01T16:41:53.414Z,87.10
2023-05-01T16:44:21.145Z,87.29
2023-05-01T16:46:55.827Z,87.34
2023-05-01T16:49:23.728Z,87.64
2023-05-01T16:51:50.556Z,86.68
2023-05-01T16:54:18.303Z,86.00
2023-05-01T16:56:44.657Z,87.22
2023-05-01T16:59:11.013Z,87.51
2023-05-01T17:01:37.486Z,87.65
2023-05-01T17:04:04.140Z,85.40
2023-05-01T17:06:31.152Z,83.44
2023-05-01T17:08:57.722Z,83.95
2023-05-01T17:11:24.716Z,83.91
2023-05-01T17:13:52.401Z,84.02
2023-05-01T17:16:19.355Z,85.78
2023-05-01T17:18:46.581Z,86.94
2023-05-01T17:21:12.969Z,87.22
2023-05-01T17:23:39.315Z,87.16
2023-05-01T17:26:05.884Z,87.02
2023-05-01T17:28:32.257Z,86.85
2023-05-01T17:30:58.722Z,87.04
2023-05-01T17:33:25.194Z,86.95
2023-05-01T17:35:51.765Z,85.71
2023-05-01T17:38:18.095Z,84.29
2023-05-01T17:40:47.153Z,84.17
2023-05-01T17:43:13.569Z,84.07
2023-05-01T17:45:40.132Z,83.90
2023-05-01T17:48:06.697Z,84.72
2023-05-01T17:50:33.088Z,84.99
2023-05-01T17:52:59.420Z,84.93
2023-05-01T17:55:27.513Z,85.75
2023-05-01T17:57:53.871Z,87.08
2023-05-01T18:00:21.125Z,87.53
2023-05-01T18:02:48.121Z,87.16
2023-05-01T18:05:14.771Z,86.83
2023-05-01T18:07:41.237Z,85.34
2023-05-01T18:10:08.426Z,84.45
2023-05-01T18:12:35.136Z,84.08
2023-05-01T18:15:01.525Z,84.31
2023-05-01T18:17:28.096Z,85.12
2023-05-01T18:19:54.880Z,85.62
2023-05-01T18:22:21.305Z,85.61
2023-05-01T18:24:48.178Z,86.19
2023-05-01T18:27:14.570Z,85.92
2023-05-01T18:29:40.913Z,85.80
2023-05-01T18:32:09.364Z,85.72
2023-05-01T18:34:36.438Z,84.35
2023-05-01T18:37:02.814Z,84.70
2023-05-01T18:39:29.256Z,84.93
2023-05-01T18:41:55.618Z,85.26
2023-05-01T18:44:22.269Z,85.10
2023-05-01T18:46:48.756Z,85.27
2023-05-01T18:49:15.444Z,85.18
2023-05-01T18:51:41.807Z,85.29
2023-05-01T18:54:09.842Z,85.65
2023-05-01T18:56:36.379Z,85.26
2023-05-01T18:59:02.707Z,85.67
2023-05-01T19:01:29.221Z,86.06
2023-05-01T19:03:58.923Z,86.17
2023-05-01T19:06:26.613Z,86.40
2023-05-01T19:08:53.570Z,86.07
2023-05-01T19:11:20.079Z,86.40
2023-05-01T19:13:46.671Z,87.47
2023-05-01T19:16:13.656Z,87.03
2023-05-01T19:18:40.787Z,87.67
2023-05-01T19:21:07.322Z,87.50
2023-05-01T19:23:35.617Z,87.78
2023-05-01T19:26:04.196Z,87.92
2023-05-01T19:28:31.146Z,87.38
2023-05-01T19:30:57.650Z,87.93
2023-05-01T19:33:24.022Z,88.05
2023-05-01T19:35:50.529Z,87.88
2023-05-01T19:38:17.054Z,88.22
2023-05-01T19:40:44.818Z,88.55
2023-05-01T19:43:13.252Z,89.08
2023-05-01T19:45:40.023Z,89.04
2023-05-01T19:48:06.837Z,89.13
2023-05-01T19:50:33.573Z,89.06
2023-05-01T19:53:00.027Z,89.16
2023-05-01T19:55:26.374Z,89.63
2023-05-01T19:57:52.753Z,89.36
2023-05-01T20:00:19.389Z,89.82
2023-05-01T20:02:47.507Z,90.09
2023-05-01T20:05:14.290Z,90.27
2023-05-01T20:07:41.336Z,90.65
2023-05-01T20:10:09.583Z,90.51
2023-05-01T20:12:35.878Z,90.52
2023-05-01T20:15:02.304Z,90.93
2023-05-01T20:17:28.890Z,91.36
2023-05-01T20:19:55.290Z,91.58
2023-05-01T20:22:21.675Z,92.00
2023-05-01T20:24:48.044Z,92.88
2023-05-01T20:27:15.601Z,93.05
2023-05-01T20:29:42.341Z,93.48
2023-05-01T20:32:08.890Z,93.42
2023-05-01T20:34:35.226Z,93.92
2023-05-01T20:37:01.706Z,94.53
2023-05-01T20:39:28.759Z,94.51
2023-05-01T20:41:56.661Z,94.70
2023-05-01T20:44:25.959Z,95.01
2023-05-01T20:46:52.597Z,95.08
2023-05-01T20:49:20.405Z,95.27
2023-05-01T20:51:46.850Z,95.57
2023-05-01T20:54:13.185Z,95.70
2023-05-01T20:56:39.546Z,95.79
2023-05-01T20:59:06.846Z,95.73
2023-05-01T21:01:33.231Z,95.42
2023-05-01T21:03:59.972Z,95.93
2023-05-01T21:06:27.338Z,95.93
2023-05-01T21:08:53.950Z,96.05
2023-05-01T21:11:20.910Z,95.89
2023-05-01T21:13:47.401Z,96.70
2023-05-01T21:16:18.261Z,96.92
2023-05-01T21:18:44.688Z,97.21
2023-05-01T21:21:16.308Z,97.33
2023-05-01T21:23:48.919Z,97.12
2023-05-01T21:26:16.266Z,97.23
2023-05-01T21:28:43.569Z,97.22
2023-05-01T21:31:13.641Z,97.27
2023-05-01T21:33:43.284Z,97.52
2023-05-01T21:36:10.479Z,97.01
2023-05-01T21:38:37.106Z,97.08
2023-05-01T21:41:03.585Z,96.84
2023-05-01T21:43:32.594Z,96.77
2023-05-01T21:45:58.984Z,97.03
2023-05-01T21:48:25.664Z,96.88
2023-05-01T21:50:52.141Z,97.19
2023-05-01T21:53:18.492Z,97.04
2023-05-01T21:55:46.613Z,97.37
2023-05-01T21:58:13.738Z,97.81
2023-05-01T22:00:41.631Z,98.11
2023-05-01T22:03:08.859Z,98.52
2023-05-01T22:05:35.287Z,98.18
2023-05-01T22:08:01.691Z,98.18
2023-05-01T22:10:28.664Z,98.27
2023-05-01T22:12:55.117Z,98.18
2023-05-01T22:15:21.536Z,98.27
2023-05-01T22:17:48.122Z,98.42
2023-05-01T22:20:14.628Z,98.43
2023-05-01T22:22:42.979Z,98.46
2023-05-01T22:25:11.546Z,98.49
2023-05-01T22:27:38.291Z,98.40
2023-05-01T22:30:05.428Z,98.03
2023-05-01T22:32:32.270Z,97.69
2023-05-01T22:34:58.628Z,97.71
2023-05-01T22:37:25.690Z,97.90
2023-05-01T22:39:53.155Z,97.94
2023-05-01T22:42:19.877Z,98.38
2023-05-01T22:44:46.284Z,98.00
2023-05-01T22:47:12.710Z,98.72
2023-05-01T22:49:39.165Z,98.45
2023-05-01T22:52:05.609Z,98.77
2023-05-01T22:54:32.007Z,98.63
2023-05-01T22:56:58.453Z,98.73
2023-05-01T22:59:25.841Z,98.65
2023-05-01T23:01:52.348Z,98.85
2023-05-01T23:04:18.793Z,98.75
2023-05-01T23:06:45.365Z,98.59
2023-05-01T23:09:12.076Z,98.56
2023-05-01T23:11:40.170Z,98.35
2023-05-01T23:14:06.597Z,98.53
2023-05-01T23:16:41.456Z,98.67
2023-05-01T23:19:24.586Z,98.55
2023-05-01T23:22:02.222Z,98.37
2023-05-01T23:24:40.381Z,98.52
2023-05-01T23:27:06.888Z,98.64
2023-05-01T23:29:33.262Z,98.95
2023-05-01T23:31:59.818Z,99.03
2023-05-01T23:34:28.412Z,99.27
2023-05-01T23:36:54.782Z,99.65
2023-05-01T23:39:21.209Z,99.85
2023-05-01T23:41:47.595Z,99.67
2023-05-01T23:44:13.962Z,99.96
2023-05-01T23:46:40.590Z,100.00
2023-05-01T23:49:06.996Z,100.00
2023-05-01T23:51:33.422Z,100.00
2023-05-01T23:54:00.372Z,100.00
2023-05-01T23:56:26.812Z,100.00
2023-05-01T23:58:53.138Z,100.00
